Time;durP1;ratioP1;P1;durP2;ratioP2;P2;SDS_P1;SDS_P2;PMS_P1;PMS_P2;Temp;Humidity;BMP_temperature;BMP_pressure;BME280_temperature;BME280_humidity;BME280_pressure;Samples;Min_cycle;Max_cycle;Signal;HPM_P1;HPM_P2
2023/02/18 00:01:07;;;;;;;11.13;10.43;;;;;;;10.84;100.00;97604.53;5054071;28;20190;-75
2023/02/18 00:03:32;;;;;;;13.13;12.53;;;;;;;10.86;100.00;97596.47;5053428;28;20194;-75
2023/02/18 00:05:58;;;;;;;14.77;13.93;;;;;;;10.86;100.00;97589.41;5054759;28;20196;-75
2023/02/18 00:08:23;;;;;;;10.43;9.93;;;;;;;10.81;100.00;97600.47;5055009;28;20182;-75
2023/02/18 00:10:48;;;;;;;10.53;10.03;;;;;;;10.83;100.00;97597.66;5054881;28;20304;-74
2023/02/18 00:13:14;;;;;;;8.53;8.13;;;;;;;10.81;100.00;97597.88;5054711;28;20666;-74
2023/02/18 00:15:39;;;;;;;5.80;5.53;;;;;;;10.72;100.00;97599.13;5054943;28;20229;-75
2023/02/18 00:18:05;;;;;;;4.67;4.47;;;;;;;10.76;100.00;97608.16;5054588;28;20198;-75
2023/02/18 00:20:32;;;;;;;5.00;4.80;;;;;;;10.76;100.00;97604.75;5053415;28;20190;-75
2023/02/18 00:22:58;;;;;;;7.10;6.70;;;;;;;10.83;100.00;97616.03;5054816;28;20194;-75
2023/02/18 00:25:24;;;;;;;8.70;8.23;;;;;;;10.83;100.00;97602.91;5055144;28;20198;-75
2023/02/18 00:27:49;;;;;;;12.87;12.20;;;;;;;10.84;100.00;97596.66;5054528;28;20291;-75
2023/02/18 00:30:15;;;;;;;10.90;10.40;;;;;;;10.91;100.00;97597.44;5053247;28;20186;-75
2023/02/18 00:32:40;;;;;;;10.40;9.90;;;;;;;10.89;100.00;97598.66;5054029;28;20515;-75
2023/02/18 00:35:06;;;;;;;9.30;8.90;;;;;;;10.82;100.00;97603.91;5053060;28;20728;-75
2023/02/18 00:37:31;;;;;;;7.70;7.40;;;;;;;10.90;100.00;97601.06;5053761;28;20201;-75
2023/02/18 00:39:56;;;;;;;6.90;6.60;;;;;;;10.84;100.00;97601.91;5054460;28;20693;-75
2023/02/18 00:42:22;;;;;;;6.13;5.83;;;;;;;10.91;100.00;97594.00;5053986;28;20650;-75
2023/02/18 00:44:47;;;;;;;5.67;5.37;;;;;;;10.84;100.00;97601.91;5054343;28;20710;-75
2023/02/18 00:47:13;;;;;;;7.00;6.70;;;;;;;10.88;100.00;97600.47;5053927;28;20205;-75
2023/02/18 00:49:38;;;;;;;5.50;5.20;;;;;;;10.82;100.00;97590.81;5052998;28;20217;-76
2023/02/18 00:52:04;;;;;;;4.90;4.70;;;;;;;10.80;100.00;97579.75;5054600;28;20201;-76
2023/02/18 00:54:29;;;;;;;4.93;4.53;;;;;;;10.84;100.00;97575.69;5054127;28;20574;-75
2023/02/18 00:56:55;;;;;;;5.37;5.17;;;;;;;10.80;100.00;97582.34;5053945;28;20205;-75
2023/02/18 00:59:20;;;;;;;5.93;5.63;;;;;;;10.85;100.00;97579.91;5054344;28;20202;-75
2023/02/18 01:01:45;;;;;;;5.00;4.80;;;;;;;10.77;100.00;97583.56;5053428;28;20663;-76
2023/02/18 01:04:11;;;;;;;3.87;3.77;;;;;;;10.79;100.00;97578.94;5052672;28;20652;-76
2023/02/18 01:06:37;;;;;;;4.63;4.43;;;;;;;10.82;100.00;97568.00;5053314;28;20209;-75
2023/02/18 01:09:03;;;;;;;3.90;3.80;;;;;;;10.68;100.00;97571.72;5053957;28;20186;-75
2023/02/18 01:11:29;;;;;;;3.50;3.40;;;;;;;10.77;100.00;97580.13;5053591;28;20328;-75
2023/02/18 01:13:54;;;;;;;4.47;4.10;;;;;;;10.81;100.00;97581.34;5053175;28;20639;-75
2023/02/18 01:16:20;;;;;;;3.83;3.70;;;;;;;10.77;100.00;97580.13;5053429;28;20194;-75
2023/02/18 01:18:45;;;;;;;4.43;4.23;;;;;;;10.78;100.00;97584.38;5053421;28;20658;-76
2023/02/18 01:21:11;;;;;;;4.10;3.90;;;;;;;10.70;100.00;97574.13;5053711;28;20182;-75
2023/02/18 01:23:38;;;;;;;4.57;4.37;;;;;;;10.81;100.00;97574.25;5053322;28;20194;-75
2023/02/18 01:26:03;;;;;;;4.93;4.73;;;;;;;10.75;100.00;97558.59;5053498;28;20204;-75
2023/02/18 01:28:29;;;;;;;4.67;4.47;;;;;;;10.64;100.00;97570.53;5053736;28;20190;-77
2023/02/18 01:30:55;;;;;;;4.67;4.47;;;;;;;10.66;100.00;97572.91;5052727;28;20194;-76
2023/02/18 01:33:20;;;;;;;6.30;6.00;;;;;;;10.70;100.00;97569.66;5052001;28;20241;-77
2023/02/18 01:35:45;;;;;;;6.03;5.73;;;;;;;10.69;100.00;97565.47;5053924;28;20183;-75
2023/02/18 01:38:11;;;;;;;6.27;5.97;;;;;;;10.62;100.00;97556.81;5052921;28;20190;-75
2023/02/18 01:40:45;;;;;;;4.97;4.73;;;;;;;10.59;100.00;97561.66;5053201;28;20248;-75
2023/02/18 01:43:12;;;;;;;4.70;4.50;;;;;;;10.71;100.00;97560.78;5053254;28;20208;-75
2023/02/18 01:45:48;;;;;;;5.10;4.90;;;;;;;10.69;100.00;97562.84;5053354;28;20583;-75
2023/02/18 01:48:19;;;;;;;4.60;4.40;;;;;;;10.62;100.00;97548.94;5053365;28;20182;-75
2023/02/18 01:50:49;;;;;;;5.30;5.00;;;;;;;10.60;100.00;97553.59;5053034;28;20205;-75
2023/02/18 01:53:20;;;;;;;5.07;4.87;;;;;;;10.55;100.00;97555.22;5052721;28;20242;-75
2023/02/18 01:55:47;;;;;;;4.43;4.23;;;;;;;10.54;100.00;97549.16;5052895;28;20186;-75
2023/02/18 01:58:13;;;;;;;4.83;4.63;;;;;;;10.49;100.00;97548.97;5053120;28;20186;-75
2023/02/18 02:00:39;;;;;;;6.80;6.43;;;;;;;10.38;100.00;97547.00;5051547;28;20289;-75
2023/02/18 02:03:04;;;;;;;7.30;6.90;;;;;;;10.36;100.00;97546.41;5051197;28;20198;-75
2023/02/18 02:05:31;;;;;;;5.93;5.63;;;;;;;10.37;100.00;97543.56;5052970;28;20216;-75
2023/02/18 02:07:58;;;;;;;7.17;6.87;;;;;;;10.40;100.00;97547.59;5052755;28;20194;-76
2023/02/18 02:10:34;;;;;;;8.07;7.67;;;;;;;10.31;100.00;97552.25;5053116;28;20285;-75
2023/02/18 02:13:15;;;;;;;7.93;7.53;;;;;;;10.27;100.00;97540.59;5052756;28;20228;-75
2023/02/18 02:15:49;;;;;;;8.53;8.03;;;;;;;10.40;100.00;97545.00;5037455;28;20185;-75
2023/02/18 02:18:42;;;;;;;7.27;6.87;;;;;;;10.42;100.00;97545.59;5052624;28;20560;-75
2023/02/18 02:21:22;;;;;;;5.80;5.50;;;;;;;10.46;100.00;97559.91;5052383;28;20219;-74
2023/02/18 02:24:12;;;;;;;4.90;4.70;;;;;;;10.52;100.00;97561.69;5055152;28;20712;-76
2023/02/18 02:26:49;;;;;;;4.40;4.20;;;;;;;10.55;100.00;97556.03;5056941;28;20205;-76
2023/02/18 02:29:14;;;;;;;5.20;4.90;;;;;;;10.51;100.00;97554.03;5056861;28;20208;-76
2023/02/18 02:31:48;;;;;;;5.33;5.13;;;;;;;10.47;100.00;97551.03;5057383;28;20228;-76
2023/02/18 02:34:32;;;;;;;5.80;5.50;;;;;;;10.52;100.00;97553.03;5055578;28;20239;-76
2023/02/18 02:37:24;;;;;;;5.43;5.13;;;;;;;10.56;100.00;97544.53;5055995;28;20708;-76
2023/02/18 02:40:05;;;;;;;4.97;4.77;;;;;;;10.59;100.00;97538.84;5056895;28;20194;-76
2023/02/18 02:42:58;;;;;;;5.37;5.17;;;;;;;10.58;100.00;97539.09;5056648;28;20197;-76
2023/02/18 02:45:32;;;;;;;6.43;6.03;;;;;;;10.60;100.00;97539.66;5056379;28;20178;-76
2023/02/18 02:48:22;;;;;;;7.93;7.53;;;;;;;10.61;100.00;97531.59;5055630;28;20173;-76
2023/02/18 02:50:54;;;;;;;8.43;8.03;;;;;;;10.59;100.00;97522.34;5055371;28;20638;-76
2023/02/18 02:53:26;;;;;;;8.07;7.57;;;;;;;10.58;100.00;97531.22;5056501;28;20215;-76
2023/02/18 02:55:53;;;;;;;7.13;6.83;;;;;;;10.58;100.00;97523.34;5056039;28;20239;-76
2023/02/18 02:58:19;;;;;;;8.77;8.37;;;;;;;10.56;100.00;97520.13;5056045;28;20182;-77
2023/02/18 03:01:00;;;;;;;8.73;8.33;;;;;;;10.57;100.00;97522.56;5056610;28;20687;-77
2023/02/18 03:03:31;;;;;;;9.33;8.67;;;;;;;10.59;100.00;97515.25;5042934;28;20243;-76
2023/02/18 03:06:20;;;;;;;9.17;8.77;;;;;;;10.56;100.00;97520.94;5056796;28;20190;-76
2023/02/18 03:09:02;;;;;;;8.27;7.87;;;;;;;10.53;100.00;97528.41;5055375;28;20654;-76
2023/02/18 03:11:34;;;;;;;7.17;6.77;;;;;;;10.49;100.00;97519.34;5056812;28;20535;-76
2023/02/18 03:14:18;;;;;;;4.73;4.53;;;;;;;10.39;100.00;97522.41;5056461;28;20241;-76
2023/02/18 03:16:58;;;;;;;4.47;4.27;;;;;;;10.40;100.00;97534.50;5056082;28;20212;-77
2023/02/18 03:19:42;;;;;;;5.20;4.93;;;;;;;10.35;100.00;97529.91;5055984;28;20193;-76
2023/02/18 03:22:16;;;;;;;6.10;5.70;;;;;;;10.37;100.00;97519.19;5055936;28;20210;-76
2023/02/18 03:24:45;;;;;;;5.03;4.83;;;;;;;10.37;100.00;97524.44;5056043;28;20213;-76
2023/02/18 03:27:31;;;;;;;5.40;5.10;;;;;;;10.26;100.00;97512.78;5056039;28;20209;-76
2023/02/18 03:30:09;;;;;;;6.23;5.93;;;;;;;10.20;100.00;97508.34;5041995;28;20196;-76
2023/02/18 03:32:35;;;;;;;6.70;6.30;;;;;;;10.15;100.00;97505.50;5055144;28;20198;-76
2023/02/18 03:35:11;;;;;;;5.53;5.33;;;;;;;10.18;100.00;97499.91;5053993;28;20664;-76
2023/02/18 03:37:41;;;;;;;4.90;4.57;;;;;;;9.95;100.00;97502.97;5054829;28;20630;-76
2023/02/18 03:40:09;;;;;;;4.80;4.60;;;;;;;10.06;100.00;97496.28;5056065;28;20189;-77
2023/02/18 03:42:34;;;;;;;5.03;4.83;;;;;;;9.93;100.00;97493.69;5055210;28;20591;-76
2023/02/18 03:44:59;;;;;;;4.67;4.40;;;;;;;9.95;100.00;97486.44;5037740;28;20209;-76
2023/02/18 03:47:25;;;;;;;3.70;3.60;;;;;;;9.91;100.00;97490.47;5054021;28;20193;-76
2023/02/18 03:49:50;;;;;;;3.70;3.50;;;;;;;9.95;100.00;97479.38;5055463;28;20642;-76
2023/02/18 03:52:16;;;;;;;3.23;3.13;;;;;;;9.85;100.00;97494.72;5054548;28;20225;-76
2023/02/18 03:54:41;;;;;;;3.43;3.30;;;;;;;9.78;100.00;97498.34;5054786;28;20230;-76
2023/02/18 03:57:07;;;;;;;3.40;3.30;;;;;;;9.69;100.00;97505.63;5054897;28;20523;-76
2023/02/18 03:59:32;;;;;;;3.33;3.23;;;;;;;9.65;100.00;97508.81;5055267;28;20200;-76
2023/02/18 04:01:58;;;;;;;3.33;3.20;;;;;;;9.72;100.00;97513.06;5053712;28;20194;-76
2023/02/18 04:04:23;;;;;;;4.07;3.87;;;;;;;9.68;100.00;97508.44;5054811;28;20205;-76
2023/02/18 04:06:48;;;;;;;4.27;4.07;;;;;;;9.66;100.00;97506.00;5055221;28;20190;-76
2023/02/18 04:09:14;;;;;;;4.37;4.17;;;;;;;9.71;100.00;97508.81;5054816;28;20678;-76
2023/02/18 04:11:40;;;;;;;3.80;3.60;;;;;;;9.59;100.00;97503.41;5053907;28;20591;-76
2023/02/18 04:14:06;;;;;;;4.40;4.20;;;;;;;9.69;100.00;97510.84;5055099;28;20633;-76
2023/02/18 04:16:31;;;;;;;3.77;3.57;;;;;;;9.73;100.00;97513.88;5055016;28;20205;-76
2023/02/18 04:18:57;;;;;;;4.53;4.23;;;;;;;9.82;100.00;97497.72;5054979;28;20182;-76
2023/02/18 04:21:22;;;;;;;4.83;4.63;;;;;;;9.78;100.00;97496.53;5054737;28;20236;-76
2023/02/18 04:23:48;;;;;;;3.97;3.77;;;;;;;9.71;100.00;97498.34;5054710;28;20226;-76
2023/02/18 04:26:13;;;;;;;3.90;3.70;;;;;;;9.77;100.00;97494.13;5054997;28;20198;-76
2023/02/18 04:28:38;;;;;;;3.73;3.57;;;;;;;9.68;100.00;97487.50;5055120;28;20277;-75
2023/02/18 04:31:04;;;;;;;3.83;3.67;;;;;;;9.75;100.00;97491.69;5054640;28;20198;-76
2023/02/18 04:33:29;;;;;;;3.80;3.60;;;;;;;9.70;100.00;97485.47;5053826;28;20674;-76
2023/02/18 04:35:55;;;;;;;3.97;3.77;;;;;;;9.62;100.00;97480.44;5056269;28;20201;-77
2023/02/18 04:38:20;;;;;;;4.63;4.33;;;;;;;9.64;100.00;97476.59;5054482;28;20205;-76
2023/02/18 04:40:45;;;;;;;4.63;4.43;;;;;;;9.68;100.00;97487.50;5053352;28;20182;-77
2023/02/18 04:43:11;;;;;;;3.77;3.57;;;;;;;9.59;100.00;97489.50;5053507;28;20654;-77
2023/02/18 04:45:36;;;;;;;4.00;3.80;;;;;;;9.53;100.00;97495.53;5053875;28;20220;-76
2023/02/18 04:48:02;;;;;;;4.20;4.00;;;;;;;9.48;100.00;97497.97;5054105;28;20225;-76
2023/02/18 04:50:27;;;;;;;4.03;3.83;;;;;;;9.46;100.00;97494.75;5054507;28;20244;-76
2023/02/18 04:52:52;;;;;;;3.53;3.23;;;;;;;9.55;100.00;97498.78;5053050;28;20260;-76
2023/02/18 04:55:18;;;;;;;4.13;3.93;;;;;;;9.60;100.00;97504.19;5054023;28;20619;-76
2023/02/18 04:57:43;;;;;;;3.67;3.47;;;;;;;9.47;100.00;97499.00;5054110;28;20863;-76
2023/02/18 05:00:13;;;;;;;4.50;4.20;;;;;;;9.42;100.00;97499.56;5052134;28;20558;-76
2023/02/18 05:02:38;;;;;;;3.70;3.50;;;;;;;9.47;100.00;97506.84;5052720;28;20197;-76
2023/02/18 05:05:04;;;;;;;4.20;4.00;;;;;;;9.48;100.00;97503.19;5053640;28;20205;-76
2023/02/18 05:07:29;;;;;;;4.20;4.00;;;;;;;9.48;100.00;97500.56;5054079;28;20201;-76
2023/02/18 05:09:54;;;;;;;3.70;3.50;;;;;;;9.43;100.00;97495.94;5052031;28;20615;-76
2023/02/18 05:12:20;;;;;;;3.87;3.60;;;;;;;9.35;100.00;97500.59;5053643;28;20198;-76
2023/02/18 05:14:45;;;;;;;4.20;4.00;;;;;;;9.30;100.00;97497.78;5053758;28;20209;-76
2023/02/18 05:17:11;;;;;;;3.60;3.40;;;;;;;9.33;100.00;97500.78;5053718;28;20186;-76
2023/02/18 05:19:36;;;;;;;4.40;4.20;;;;;;;9.29;100.00;97504.81;5053234;28;20186;-76
2023/02/18 05:22:01;;;;;;;4.17;3.97;;;;;;;9.34;100.00;97509.44;5053686;28;20197;-76
2023/02/18 05:24:27;;;;;;;3.53;3.37;;;;;;;9.27;100.00;97506.00;5053691;28;20662;-76
2023/02/18 05:26:52;;;;;;;3.30;3.17;;;;;;;9.30;100.00;97505.63;5053693;28;20276;-77
2023/02/18 05:29:17;;;;;;;3.60;3.40;;;;;;;9.26;100.00;97505.19;5052903;28;20283;-76
2023/02/18 05:31:42;;;;;;;3.77;3.57;;;;;;;9.32;100.00;97495.75;5052988;28;20198;-76
2023/02/18 05:34:08;;;;;;;3.50;3.30;;;;;;;9.26;100.00;97491.31;5052984;28;20241;-76
2023/02/18 05:36:33;;;;;;;3.80;3.60;;;;;;;9.25;100.00;97492.34;5052867;28;20194;-77
2023/02/18 05:38:58;;;;;;;4.03;3.83;;;;;;;9.21;100.00;97486.69;5052817;28;20793;-76
2023/02/18 05:41:24;;;;;;;4.00;3.80;;;;;;;9.20;100.00;97485.06;5052917;28;20245;-77
2023/02/18 05:46:33;;;;;;;5.23;5.03;;;;;;;9.23;100.00;97487.31;5053128;28;20212;-76
2023/02/18 05:48:58;;;;;;;5.80;5.50;;;;;;;9.29;100.00;97489.13;5053050;28;20194;-76
2023/02/18 05:51:24;;;;;;;5.93;5.43;;;;;;;9.19;100.00;97483.50;5053667;28;20273;-74
2023/02/18 05:53:49;;;;;;;5.73;5.43;;;;;;;9.21;100.00;97478.84;5065178;28;20210;-74
2023/02/18 05:56:14;;;;;;;6.00;5.70;;;;;;;9.28;100.00;97477.03;5053271;28;20273;-74
2023/02/18 05:58:39;;;;;;;5.07;4.77;;;;;;;9.21;100.00;97491.13;5052363;28;20202;-75
2023/02/18 06:01:05;;;;;;;6.17;5.83;;;;;;;9.30;100.00;97485.50;5051100;28;20213;-75
2023/02/18 06:03:30;;;;;;;5.97;5.67;;;;;;;9.30;100.00;97484.69;5051396;28;20201;-75
2023/02/18 06:05:55;;;;;;;6.30;6.00;;;;;;;9.36;100.00;97482.06;5053118;28;20194;-75
2023/02/18 06:08:21;;;;;;;5.60;5.27;;;;;;;9.34;100.00;97481.47;5052868;28;20277;-76
2023/02/18 06:10:46;;;;;;;5.57;5.33;;;;;;;9.35;100.00;97485.72;5052808;28;20324;-75
2023/02/18 06:13:12;;;;;;;4.57;4.37;;;;;;;9.35;100.00;97483.09;5052667;28;20222;-76
2023/02/18 06:15:38;;;;;;;5.30;5.00;;;;;;;9.31;100.00;97481.88;5053359;28;20269;-75
2023/02/18 06:18:05;;;;;;;4.37;4.17;;;;;;;9.37;100.00;97488.09;5053918;28;20684;-76
2023/02/18 06:20:30;;;;;;;4.70;4.50;;;;;;;9.37;100.00;97485.47;5052593;28;20194;-75
2023/02/18 06:22:55;;;;;;;5.23;4.93;;;;;;;9.34;100.00;97481.47;5052632;28;20202;-76
2023/02/18 06:25:21;;;;;;;5.63;5.33;;;;;;;9.21;100.00;97488.50;5052415;28;20229;-76
2023/02/18 06:27:46;;;;;;;5.83;5.53;;;;;;;9.22;100.00;97492.72;5051419;28;20190;-75
2023/02/18 06:30:12;;;;;;;5.60;5.30;;;;;;;9.25;100.00;97487.13;5052582;28;20285;-76
2023/02/18 06:32:37;;;;;;;5.30;5.00;;;;;;;9.24;100.00;97483.69;5051658;28;20272;-76
2023/02/18 06:35:03;;;;;;;5.23;4.93;;;;;;;9.31;100.00;97486.28;5052815;28;20226;-78
2023/02/18 06:37:28;;;;;;;5.40;5.10;;;;;;;9.41;100.00;97484.09;5051307;28;20600;-76
2023/02/18 06:39:55;;;;;;;7.33;6.93;;;;;;;9.45;100.00;97487.91;5051673;28;20198;-75
2023/02/18 06:42:20;;;;;;;12.10;11.37;;;;;;;9.48;100.00;97485.69;5051574;28;20221;-76
2023/02/18 06:44:46;;;;;;;4.70;4.50;;;;;;;9.60;100.00;97483.25;5052981;28;20678;-76
2023/02/18 06:47:11;;;;;;;4.80;4.53;;;;;;;9.57;100.00;97488.91;5052637;28;20555;-76
2023/02/18 06:49:37;;;;;;;4.23;3.93;;;;;;;9.52;100.00;97492.16;5052449;28;20202;-76
2023/02/18 06:52:03;;;;;;;5.13;4.83;;;;;;;9.61;100.00;97490.13;5052434;28;20265;-76
2023/02/18 06:54:28;;;;;;;4.00;3.83;;;;;;;9.65;100.00;97486.06;5051678;28;20317;-76
2023/02/18 06:56:54;;;;;;;5.30;5.10;;;;;;;9.72;100.00;97494.72;5052317;28;20700;-75
2023/02/18 06:59:19;;;;;;;5.80;5.40;;;;;;;10.76;100.00;97492.81;5049355;28;20229;-75
2023/02/18 07:01:44;;;;;;;11.23;9.10;;;;;;;11.00;100.00;97495.69;5052090;28;20658;-75
2023/02/18 07:04:10;;;;;;;5.10;4.80;;;;;;;10.43;100.00;97487.72;5052088;28;20221;-74
2023/02/18 07:06:35;;;;;;;3.27;3.03;;;;;;;10.39;100.00;97488.34;5052411;28;20529;-76
2023/02/18 07:09:00;;;;;;;3.37;3.17;;;;;;;10.27;100.00;97496.03;5053485;28;20197;-75
2023/02/18 07:11:26;;;;;;;3.97;3.77;;;;;;;10.10;100.00;97494.03;5055083;28;20527;-74
2023/02/18 07:13:51;;;;;;;4.97;4.57;;;;;;;10.18;100.00;97492.06;5055744;28;20351;-74
2023/02/18 07:16:16;;;;;;;3.93;3.67;;;;;;;10.16;100.00;97490.59;5053959;28;20190;-74
2023/02/18 07:18:42;;;;;;;4.10;3.90;;;;;;;10.19;100.00;97492.88;5055739;28;20201;-74
2023/02/18 07:21:07;;;;;;;4.20;3.90;;;;;;;10.09;100.00;97487.19;5055677;28;20186;-75
2023/02/18 07:23:33;;;;;;;4.40;4.10;;;;;;;10.21;100.00;97483.78;5055835;28;20628;-74
2023/02/18 07:26:16;;;;;;;3.80;3.60;;;;;;;10.33;100.00;97484.75;5055333;28;20186;-74
2023/02/18 07:28:41;;;;;;;4.50;4.27;;;;;;;10.36;100.00;97486.97;5055815;28;20182;-75
2023/02/18 07:31:07;;;;;;;4.60;4.30;;;;;;;10.34;100.00;97488.97;5055302;28;20208;-76
2023/02/18 07:33:33;;;;;;;4.40;4.20;;;;;;;10.37;100.00;97482.50;5053588;28;20319;-74
2023/02/18 07:36:00;;;;;;;7.90;7.40;;;;;;;10.49;100.00;97487.91;5054227;28;20780;-74
2023/02/18 07:38:26;;;;;;;5.03;4.83;;;;;;;10.53;100.00;97481.25;5056270;28;20646;-74
2023/02/18 07:40:53;;;;;;;6.07;5.77;;;;;;;10.61;100.00;97473.94;5056030;28;20193;-75
2023/02/18 07:43:19;;;;;;;5.20;4.80;;;;;;;10.70;100.00;97469.25;5055277;28;20186;-75
2023/02/18 07:45:44;;;;;;;9.70;9.20;;;;;;;10.73;100.00;97460.97;5056099;28;20200;-73
2023/02/18 07:48:10;;;;;;;14.00;13.30;;;;;;;10.71;100.00;97462.97;5055781;28;20224;-74
2023/02/18 07:50:39;;;;;;;13.00;12.33;;;;;;;10.66;100.00;97463.63;5054258;28;20552;-74
2023/02/18 07:53:04;;;;;;;10.03;9.50;;;;;;;10.79;100.00;97465.38;5055515;28;20210;-74
2023/02/18 07:55:48;;;;;;;7.17;6.80;;;;;;;10.75;100.00;97472.88;5058335;28;20193;-73
2023/02/18 07:58:16;;;;;;;7.07;6.67;;;;;;;10.97;100.00;97459.41;5054923;28;20182;-73
2023/02/18 08:00:41;;;;;;;7.93;7.53;;;;;;;11.13;100.00;97464.13;5053335;28;20225;-73
2023/02/18 08:03:06;;;;;;;4.13;3.93;;;;;;;11.09;100.00;97455.88;5056035;28;20232;-72
2023/02/18 08:05:32;;;;;;;5.27;4.90;;;;;;;11.26;100.00;97470.06;5056688;28;20571;-76
2023/02/18 08:07:57;;;;;;;5.57;5.27;;;;;;;11.10;100.00;97465.34;5054348;28;20190;-74
2023/02/18 08:10:22;;;;;;;4.67;4.47;;;;;;;11.29;100.00;97461.00;5054604;28;20198;-74
2023/02/18 08:12:48;;;;;;;6.93;6.63;;;;;;;11.43;100.00;97466.91;5054740;28;20190;-73
2023/02/18 08:15:13;;;;;;;10.23;9.73;;;;;;;11.24;100.00;97459.00;5053493;28;20189;-74
2023/02/18 08:17:39;;;;;;;9.97;9.47;;;;;;;11.26;100.00;97450.91;5054878;28;20186;-73
2023/02/18 08:20:05;;;;;;;8.53;8.07;;;;;;;11.27;100.00;97461.19;5052846;28;20280;-74
2023/02/18 08:22:30;;;;;;;5.23;4.93;;;;;;;11.39;100.00;97463.94;5053472;28;20209;-74
2023/02/18 08:24:56;;;;;;;5.63;5.33;;;;;;;11.42;100.00;97465.34;5051474;28;20651;-73
2023/02/18 08:27:22;;;;;;;5.20;4.90;;;;;;;11.53;100.00;97468.06;5054252;28;20186;-73
2023/02/18 08:29:47;;;;;;;5.00;4.70;;;;;;;11.51;100.00;97469.28;5053603;28;20344;-73
2023/02/18 08:32:13;;;;;;;3.63;3.43;;;;;;;11.59;100.00;97469.78;5052568;28;20697;-73
2023/02/18 08:34:38;;;;;;;3.27;3.17;;;;;;;11.61;100.00;97461.72;5053063;28;20222;-73
2023/02/18 08:37:04;;;;;;;3.73;3.53;;;;;;;11.61;100.00;97457.28;5052873;28;20293;-74
2023/02/18 08:39:36;;;;;;;5.23;4.97;;;;;;;11.65;99.94;97457.63;5054513;28;20198;-73
2023/02/18 08:42:01;;;;;;;8.20;7.77;;;;;;;11.82;99.35;97457.91;5054049;28;20201;-73
2023/02/18 08:44:30;;;;;;;15.03;14.27;;;;;;;11.82;99.34;97458.69;5054497;28;20203;-73
2023/02/18 08:46:55;;;;;;;32.67;30.77;;;;;;;12.01;98.01;97449.03;5053031;28;20201;-72
2023/02/18 08:49:22;;;;;;;53.70;50.83;;;;;;;11.91;97.38;97456.63;5054400;28;20206;-73
2023/02/18 08:51:51;;;;;;;61.40;58.13;;;;;;;11.90;97.45;97440.03;5052972;28;20232;-75
2023/02/18 08:54:17;;;;;;;53.30;50.50;;;;;;;11.88;97.82;97443.91;5053548;28;20240;-74
2023/02/18 08:56:42;;;;;;;31.63;29.97;;;;;;;12.01;96.02;97444.56;5054356;28;20198;-73
2023/02/18 08:59:07;;;;;;;21.80;20.63;;;;;;;12.09;95.43;97457.41;5051918;28;20190;-74
2023/02/18 09:01:33;;;;;;;10.77;10.20;;;;;;;12.17;95.16;97450.25;5054107;28;20194;-75
2023/02/18 09:03:59;;;;;;;5.97;5.67;;;;;;;12.30;94.20;97442.22;5054108;28;20201;-74
2023/02/18 09:06:24;;;;;;;7.43;7.00;;;;;;;12.22;94.23;97445.13;5053722;28;20198;-75
2023/02/18 09:08:50;;;;;;;13.63;12.93;;;;;;;12.22;93.69;97439.88;5053899;28;20495;-73
2023/02/18 09:11:16;;;;;;;13.93;13.13;;;;;;;12.23;94.13;97430.97;5036176;28;20327;-72
2023/02/18 09:13:42;;;;;;;13.77;13.07;;;;;;;12.25;93.10;97434.19;5053252;28;20685;-74
2023/02/18 09:16:17;;;;;;;10.00;9.23;;;;;;;12.34;92.33;97440.75;5053991;28;20189;-74
2023/02/18 09:18:43;;;;;;;7.53;7.23;;;;;;;12.34;91.44;97430.22;5054136;28;20595;-74
2023/02/18 09:21:11;;;;;;;7.87;7.47;;;;;;;12.20;92.66;97429.63;5054574;28;20275;-74
2023/02/18 09:23:36;;;;;;;7.20;6.80;;;;;;;12.28;91.70;97425.84;5053485;28;20190;-74
2023/02/18 09:26:06;;;;;;;6.73;6.27;;;;;;;12.38;90.99;97420.88;5053803;28;20190;-75
2023/02/18 09:28:33;;;;;;;6.10;5.80;;;;;;;12.54;90.15;97415.00;5053901;28;20193;-73
2023/02/18 09:31:10;;;;;;;8.63;8.23;;;;;;;12.66;88.88;97418.47;5052519;28;20638;-73
2023/02/18 09:33:38;;;;;;;11.40;10.80;;;;;;;12.93;88.15;97424.16;5053644;28;20291;-74
2023/02/18 09:36:04;;;;;;;11.50;10.87;;;;;;;12.99;86.80;97420.63;5052264;28;20236;-74
2023/02/18 09:38:29;;;;;;;12.70;12.07;;;;;;;12.96;86.73;97405.28;5051686;28;20218;-74
2023/02/18 09:40:56;;;;;;;10.50;9.93;;;;;;;12.84;88.06;97402.63;5053415;28;20200;-74
2023/02/18 09:43:29;;;;;;;11.33;10.73;;;;;;;12.80;88.69;97404.13;5051785;28;20221;-76
2023/02/18 09:45:59;;;;;;;9.67;9.17;;;;;;;12.83;88.80;97408.13;5053229;28;20185;-76
2023/02/18 09:48:32;;;;;;;11.23;10.73;;;;;;;12.79;87.46;97412.22;5053420;28;20594;-73
2023/02/18 09:50:58;;;;;;;10.40;9.90;;;;;;;12.79;87.69;97409.59;5053727;28;20646;-74
2023/02/18 09:53:24;;;;;;;13.13;12.47;;;;;;;12.95;87.40;97408.13;5054148;28;20628;-73
2023/02/18 09:55:55;;;;;;;12.27;11.67;;;;;;;12.88;86.65;97400.34;5053014;28;20206;-73
2023/02/18 09:58:25;;;;;;;10.40;9.90;;;;;;;12.94;86.25;97407.34;5047138;28;20186;-74
2023/02/18 10:01:26;;;;;;;10.73;10.03;;;;;;;13.03;85.85;97416.53;5048513;28;20239;-74
2023/02/18 10:03:52;;;;;;;12.23;11.60;;;;;;;12.76;86.37;97423.97;5052117;28;20190;-74
2023/02/18 10:06:29;;;;;;;10.50;9.90;;;;;;;12.82;86.90;97409.94;5053591;28;20198;-75
2023/02/18 10:08:59;;;;;;;9.50;9.07;;;;;;;12.86;86.79;97419.00;5052973;28;20193;-79
2023/02/18 10:11:44;;;;;;;7.53;7.13;;;;;;;12.86;86.03;97413.75;5052332;28;20670;-75
2023/02/18 10:14:12;;;;;;;7.33;6.93;;;;;;;12.73;86.51;97413.94;5054305;28;20200;-78
2023/02/18 10:16:38;;;;;;;9.73;9.13;;;;;;;12.69;86.57;97411.97;5053839;28;20219;-74
2023/02/18 10:19:27;;;;;;;7.50;7.07;;;;;;;12.67;86.69;97412.19;5053549;28;20190;-74
2023/02/18 10:21:54;;;;;;;7.57;7.17;;;;;;;12.80;86.00;97405.94;5059165;28;20250;-76
2023/02/18 10:24:41;;;;;;;7.70;7.30;;;;;;;12.82;86.23;97411.75;5053124;28;20300;-76
2023/02/18 10:27:08;;;;;;;5.07;4.83;;;;;;;12.97;85.23;97414.78;5053009;28;20208;-75
2023/02/18 10:29:34;;;;;;;6.47;6.17;;;;;;;12.82;86.02;97411.75;5051523;28;20204;-75
2023/02/18 10:32:09;;;;;;;6.53;6.20;;;;;;;12.99;84.94;97415.34;5051411;28;20201;-74
2023/02/18 10:34:52;;;;;;;9.53;9.07;;;;;;;12.81;84.79;97412.81;5052365;28;20221;-75
2023/02/18 10:37:46;;;;;;;5.43;5.13;;;;;;;12.84;85.11;97418.41;5051982;28;20201;-74
2023/02/18 10:40:40;;;;;;;4.77;4.57;;;;;;;13.20;83.36;97421.97;5052951;28;20178;-76
2023/02/18 10:43:21;;;;;;;10.70;10.17;;;;;;;13.15;83.05;97416.56;5052678;28;20190;-75
2023/02/18 10:46:11;;;;;;;22.17;20.93;;;;;;;13.09;82.85;97412.19;5056274;28;20186;-74
2023/02/18 10:48:59;;;;;;;27.27;25.67;;;;;;;13.04;82.99;97406.81;5056625;28;20654;-76
2023/02/18 10:51:30;;;;;;;14.57;13.87;;;;;;;13.14;82.42;97420.22;5056410;28;20183;-74
2023/02/18 10:53:56;;;;;;;11.80;11.00;;;;;;;13.06;81.90;97416.06;5055103;28;20217;-79
2023/02/18 10:56:33;;;;;;;17.37;16.50;;;;;;;13.30;81.36;97409.84;5055111;28;20190;-76
2023/02/18 10:59:18;;;;;;;13.37;12.67;;;;;;;13.37;80.83;97414.19;5054631;28;20546;-75
2023/02/18 11:02:02;;;;;;;29.00;27.43;;;;;;;13.24;80.61;97416.00;5058458;28;20189;-76
2023/02/18 11:04:36;;;;;;;22.93;21.67;;;;;;;13.21;80.77;97413.00;5058111;28;20657;-75
2023/02/18 11:07:14;;;;;;;19.43;18.43;;;;;;;13.32;80.86;97409.59;5058287;28;20349;-75
2023/02/18 11:09:51;;;;;;;14.37;13.53;;;;;;;13.46;79.48;97399.63;5056067;28;20200;-76
2023/02/18 11:12:21;;;;;;;12.77;12.13;;;;;;;13.49;79.70;97401.81;5041883;28;20185;-76
2023/02/18 11:15:01;;;;;;;11.70;11.10;;;;;;;13.42;79.98;97401.94;5055507;28;20296;-77
2023/02/18 11:17:30;;;;;;;7.47;7.10;;;;;;;13.42;78.97;97390.59;5056180;28;20231;-75
2023/02/18 11:20:01;;;;;;;8.73;8.30;;;;;;;13.37;79.80;97385.22;5055585;28;20192;-75
2023/02/18 11:22:32;;;;;;;7.27;6.97;;;;;;;13.37;80.00;97382.59;5055609;28;20209;-78
2023/02/18 11:25:03;;;;;;;6.27;5.87;;;;;;;13.43;79.45;97382.44;5054161;28;20205;-75
2023/02/18 11:27:43;;;;;;;5.37;5.10;;;;;;;13.28;79.95;97377.66;5055703;28;20212;-75
2023/02/18 11:30:43;;;;;;;5.07;4.87;;;;;;;13.21;79.80;97368.25;5052515;28;20190;-77
2023/02/18 11:33:21;;;;;;;5.23;4.93;;;;;;;13.49;78.76;97370.19;5013356;28;20239;-76
2023/02/18 11:35:57;;;;;;;5.50;5.03;;;;;;;13.36;78.46;97357.28;5019964;28;20198;-75
2023/02/18 11:38:35;;;;;;;6.10;5.80;;;;;;;13.54;77.77;97370.34;5039742;28;20185;-76